Time;durP1;ratioP1;P1;durP2;ratioP2;P2;SDS_P1;SDS_P2;PMS_P1;PMS_P2;Temp;Humidity;BMP_temperature;BMP_pressure;BME280_temperature;BME280_humidity;BME280_pressure;Samples;Min_cycle;Max_cycle;Signal;HPM_P1;HPM_P2
2023/08/14 00:01:00;;;;;;;16.33;13.30;;;;;;;;;;5044836;28;20040;-75
2023/08/14 00:03:26;;;;;;;18.33;14.00;;;;;;;;;;5051570;28;20029;-73
2023/08/14 00:05:51;;;;;;;69.13;33.67;;;;;;;;;;5049176;28;20348;-73
2023/08/14 00:08:16;;;;;;;44.92;26.15;;;;;;;;;;5041403;28;20644;-73
2023/08/14 00:10:42;;;;;;;37.67;20.73;;;;;;;;;;5047954;28;20395;-72
2023/08/14 00:13:07;;;;;;;34.08;18.65;;;;;;;;;;5038749;28;20033;-71
2023/08/14 00:15:32;;;;;;;34.15;17.70;;;;;;;;;;5039993;28;20124;-72
2023/08/14 00:17:58;;;;;;;18.40;12.23;;;;;;;;;;5053221;28;20503;-71
2023/08/14 00:20:23;;;;;;;14.48;11.05;;;;;;;;;;5045608;28;20367;-73
2023/08/14 00:22:48;;;;;;;15.00;10.98;;;;;;;;;;5039057;28;20352;-71
2023/08/14 00:25:14;;;;;;;10.13;8.80;;;;;;;;;;5048414;28;20033;-70
2023/08/14 00:27:39;;;;;;;10.32;9.07;;;;;;;;;;5045398;28;20025;-73
2023/08/14 00:30:05;;;;;;;10.98;8.50;;;;;;;;;;5042477;28;20060;-73
2023/08/14 00:32:31;;;;;;;11.90;9.05;;;;;;;;;;5043527;28;20040;-73
2023/08/14 00:34:56;;;;;;;27.63;16.13;;;;;;;;;;5039880;28;20414;-72
2023/08/14 00:37:23;;;;;;;35.08;18.73;;;;;;;;;;5048897;28;20028;-74
2023/08/14 00:39:48;;;;;;;110.05;48.13;;;;;;;;;;5047675;28;20051;-72
2023/08/14 00:42:14;;;;;;;97.95;44.33;;;;;;;;;;5045507;28;20051;-73
2023/08/14 00:44:39;;;;;;;67.15;34.40;;;;;;;;;;5038893;28;20036;-74
2023/08/14 00:47:06;;;;;;;48.00;24.52;;;;;;;;;;5039731;28;20116;-74
2023/08/14 00:49:31;;;;;;;30.63;19.00;;;;;;;;;;5045569;28;20047;-73
2023/08/14 00:51:57;;;;;;;42.47;23.30;;;;;;;;;;5038097;28;20507;-72
2023/08/14 00:54:22;;;;;;;39.03;22.77;;;;;;;;;;5057300;28;20025;-72
2023/08/14 00:56:48;;;;;;;34.28;20.33;;;;;;;;;;5056275;28;20107;-71
2023/08/14 00:59:14;;;;;;;27.17;17.52;;;;;;;;;;5051908;28;20058;-74
2023/08/14 01:01:39;;;;;;;21.17;14.30;;;;;;;;;;5037853;28;20057;-73
2023/08/14 01:04:05;;;;;;;15.27;11.07;;;;;;;;;;5044851;28;20059;-71
2023/08/14 01:06:30;;;;;;;9.45;8.45;;;;;;;;;;5056074;28;20021;-71
2023/08/14 01:08:56;;;;;;;9.13;8.23;;;;;;;;;;5056948;28;20115;-71
2023/08/14 01:11:32;;;;;;;10.27;7.90;;;;;;;;;;5055104;28;20033;-72
2023/08/14 01:14:07;;;;;;;9.57;8.52;;;;;;;;;;5042678;28;20024;-72
2023/08/14 01:16:35;;;;;;;9.48;8.55;;;;;;;;;;5044763;28;20128;-72
2023/08/14 01:19:01;;;;;;;8.60;7.80;;;;;;;;;;5042423;28;20025;-71
2023/08/14 01:21:32;;;;;;;8.77;7.88;;;;;;;;;;5058150;28;20068;-72
2023/08/14 01:24:06;;;;;;;8.57;7.35;;;;;;;;;;5041943;28;20029;-72
2023/08/14 01:26:33;;;;;;;17.50;9.77;;;;;;;;;;5060082;28;20400;-72
2023/08/14 01:28:58;;;;;;;9.63;8.73;;;;;;;;;;5056479;28;20024;-73
2023/08/14 01:31:23;;;;;;;9.48;8.60;;;;;;;;;;5041589;28;20033;-71
2023/08/14 01:33:49;;;;;;;9.55;8.63;;;;;;;;;;5044173;28;20057;-73
2023/08/14 01:36:30;;;;;;;8.52;7.82;;;;;;;;;;5041584;28;20075;-74
2023/08/14 01:39:13;;;;;;;8.30;7.60;;;;;;;;;;5041134;28;20032;-73
2023/08/14 01:41:45;;;;;;;9.30;7.82;;;;;;;;;;5049202;28;20064;-72
2023/08/14 01:44:11;;;;;;;13.30;10.30;;;;;;;;;;5058683;28;20353;-72
2023/08/14 01:46:42;;;;;;;23.60;14.55;;;;;;;;;;5060668;28;20050;-72
2023/08/14 01:49:08;;;;;;;18.35;13.23;;;;;;;;;;5047572;28;20031;-71
2023/08/14 01:51:34;;;;;;;13.88;10.98;;;;;;;;;;5051416;28;20452;-71
2023/08/14 01:53:59;;;;;;;12.05;10.50;;;;;;;;;;5060732;28;20024;-71
2023/08/14 01:56:24;;;;;;;11.70;9.82;;;;;;;;;;5059785;28;20023;-72
2023/08/14 01:58:50;;;;;;;12.93;9.70;;;;;;;;;;5060035;28;20508;-71
2023/08/14 02:01:15;;;;;;;13.38;10.35;;;;;;;;;;5044913;28;20463;-74
2023/08/14 02:03:40;;;;;;;9.43;8.20;;;;;;;;;;5056883;28;20020;-72
2023/08/14 02:06:06;;;;;;;9.43;8.63;;;;;;;;;;5043336;28;20032;-73
2023/08/14 02:08:31;;;;;;;8.35;7.65;;;;;;;;;;5058477;28;20021;-74
2023/08/14 02:10:56;;;;;;;9.60;8.60;;;;;;;;;;5059101;28;20060;-73
2023/08/14 02:13:22;;;;;;;9.60;8.57;;;;;;;;;;5054229;28;20110;-72
2023/08/14 02:15:47;;;;;;;10.18;8.18;;;;;;;;;;5045170;28;20058;-73
2023/08/14 02:18:13;;;;;;;9.73;8.35;;;;;;;;;;5057227;28;20027;-73
2023/08/14 02:20:48;;;;;;;17.60;10.00;;;;;;;;;;5042225;28;20040;-72
2023/08/14 02:23:13;;;;;;;14.90;11.18;;;;;;;;;;5056464;28;20056;-73
2023/08/14 02:25:39;;;;;;;12.80;9.98;;;;;;;;;;5046704;28;20174;-74
2023/08/14 02:28:04;;;;;;;13.48;10.55;;;;;;;;;;5055828;28;20024;-72
2023/08/14 02:30:30;;;;;;;12.52;10.32;;;;;;;;;;5059177;28;20499;-72
2023/08/14 02:32:56;;;;;;;12.65;11.07;;;;;;;;;;5059731;28;20867;-72
2023/08/14 02:35:21;;;;;;;12.85;10.52;;;;;;;;;;5044959;28;20025;-73
2023/08/14 02:37:47;;;;;;;11.45;10.35;;;;;;;;;;5050308;28;20032;-72
2023/08/14 02:40:12;;;;;;;12.48;10.05;;;;;;;;;;5052046;28;20688;-74
2023/08/14 02:42:38;;;;;;;10.90;9.68;;;;;;;;;;5058958;28;20033;-72
2023/08/14 02:45:03;;;;;;;11.32;10.23;;;;;;;;;;5045634;28;20024;-73
2023/08/14 02:47:28;;;;;;;11.10;10.00;;;;;;;;;;5040826;28;20023;-72
2023/08/14 02:49:54;;;;;;;11.15;9.68;;;;;;;;;;5058043;28;20040;-71
2023/08/14 02:52:19;;;;;;;19.23;8.98;;;;;;;;;;5055730;28;20028;-71
2023/08/14 02:54:44;;;;;;;8.40;7.60;;;;;;;;;;5042220;28;20029;-71
2023/08/14 02:57:10;;;;;;;8.25;7.53;;;;;;;;;;5043298;28;20515;-71
2023/08/14 02:59:35;;;;;;;10.52;9.27;;;;;;;;;;5059097;28;20099;-74
2023/08/14 03:02:00;;;;;;;10.02;9.05;;;;;;;;;;5060288;28;20047;-71
2023/08/14 03:04:26;;;;;;;9.65;8.75;;;;;;;;;;5050185;28;20194;-72
2023/08/14 03:06:51;;;;;;;9.45;8.65;;;;;;;;;;5047764;28;20449;-72
2023/08/14 03:09:17;;;;;;;8.45;7.70;;;;;;;;;;5049875;28;20140;-72
2023/08/14 03:11:42;;;;;;;9.30;8.52;;;;;;;;;;5041685;28;20024;-72
2023/08/14 03:14:07;;;;;;;8.68;7.88;;;;;;;;;;5042101;28;20106;-72
2023/08/14 03:16:33;;;;;;;10.35;8.20;;;;;;;;;;5048333;28;20205;-72
2023/08/14 03:18:58;;;;;;;9.25;8.45;;;;;;;;;;5049963;28;20104;-70
2023/08/14 03:21:23;;;;;;;10.18;9.20;;;;;;;;;;5048742;28;20028;-73
2023/08/14 03:23:50;;;;;;;9.52;8.63;;;;;;;;;;5057828;28;20063;-71
2023/08/14 03:26:15;;;;;;;8.82;7.97;;;;;;;;;;5059149;28;20028;-75
2023/08/14 03:28:40;;;;;;;8.45;7.75;;;;;;;;;;5068289;28;20029;-72
2023/08/14 03:31:06;;;;;;;9.75;8.80;;;;;;;;;;5044748;28;20400;-71
2023/08/14 03:33:31;;;;;;;11.27;8.05;;;;;;;;;;5058364;28;20024;-72
2023/08/14 03:35:56;;;;;;;9.30;7.72;;;;;;;;;;5059314;28;20036;-72
2023/08/14 03:38:22;;;;;;;9.55;8.40;;;;;;;;;;5057521;28;20025;-71
2023/08/14 03:40:47;;;;;;;9.35;8.45;;;;;;;;;;5057240;28;20173;-71
2023/08/14 03:43:12;;;;;;;10.98;8.75;;;;;;;;;;5058837;28;20039;-73
2023/08/14 03:45:38;;;;;;;9.25;8.43;;;;;;;;;;5040952;28;20075;-72
2023/08/14 03:48:03;;;;;;;8.80;8.00;;;;;;;;;;5057274;28;20024;-74
2023/08/14 03:50:29;;;;;;;9.23;8.35;;;;;;;;;;5041996;28;20032;-70
2023/08/14 03:52:55;;;;;;;9.07;8.15;;;;;;;;;;5055084;28;20028;-74
2023/08/14 03:55:20;;;;;;;8.45;7.75;;;;;;;;;;5039517;28;20400;-70
2023/08/14 03:57:45;;;;;;;9.18;8.15;;;;;;;;;;5057179;28;20025;-71
2023/08/14 04:00:11;;;;;;;8.82;8.02;;;;;;;;;;5043466;28;20047;-74
2023/08/14 04:02:36;;;;;;;9.10;8.38;;;;;;;;;;5041226;28;20056;-71
2023/08/14 04:05:01;;;;;;;9.43;8.52;;;;;;;;;;5042199;28;20091;-71
2023/08/14 04:07:27;;;;;;;9.93;8.50;;;;;;;;;;5042814;28;20020;-71
2023/08/14 04:09:52;;;;;;;9.45;8.32;;;;;;;;;;5042185;28;20033;-74
2023/08/14 04:12:17;;;;;;;9.23;8.35;;;;;;;;;;5042412;28;20024;-73
2023/08/14 04:14:43;;;;;;;8.95;8.13;;;;;;;;;;5040606;28;20031;-71
2023/08/14 04:17:09;;;;;;;8.77;7.85;;;;;;;;;;5048037;28;20035;-70
2023/08/14 04:19:34;;;;;;;8.70;8.00;;;;;;;;;;5055121;28;20032;-73
2023/08/14 04:21:59;;;;;;;8.35;7.50;;;;;;;;;;5045910;28;20151;-73
2023/08/14 04:24:25;;;;;;;12.48;7.60;;;;;;;;;;5057825;28;20036;-71
2023/08/14 04:26:50;;;;;;;9.02;8.23;;;;;;;;;;5054082;28;20024;-73
2023/08/14 04:29:16;;;;;;;8.77;7.53;;;;;;;;;;5045547;28;20031;-71
2023/08/14 04:31:41;;;;;;;9.07;8.27;;;;;;;;;;5045392;28;20021;-74
2023/08/14 04:34:08;;;;;;;9.48;8.50;;;;;;;;;;5046263;28;20046;-73
2023/08/14 04:36:34;;;;;;;9.82;8.82;;;;;;;;;;5049534;28;20031;-75
2023/08/14 04:39:00;;;;;;;9.52;8.65;;;;;;;;;;5039811;28;20025;-73
2023/08/14 04:41:25;;;;;;;9.35;8.57;;;;;;;;;;5051031;28;20407;-75
2023/08/14 04:43:51;;;;;;;10.35;9.27;;;;;;;;;;5057423;28;20119;-74
2023/08/14 04:46:33;;;;;;;11.07;8.30;;;;;;;;;;5046210;28;20021;-75
2023/08/14 04:48:59;;;;;;;9.15;8.35;;;;;;;;;;5043648;28;20075;-73
2023/08/14 04:51:24;;;;;;;9.70;8.90;;;;;;;;;;5049409;28;20052;-75
2023/08/14 04:53:50;;;;;;;10.38;9.38;;;;;;;;;;5056071;28;20024;-74
2023/08/14 04:56:15;;;;;;;9.93;9.13;;;;;;;;;;5051894;28;20444;-74
2023/08/14 04:58:41;;;;;;;16.00;9.65;;;;;;;;;;5044105;28;20033;-73
2023/08/14 05:01:06;;;;;;;9.60;8.70;;;;;;;;;;5042467;28;20139;-73
2023/08/14 05:03:31;;;;;;;9.95;9.05;;;;;;;;;;5057060;28;20123;-75
2023/08/14 05:05:57;;;;;;;10.48;9.45;;;;;;;;;;5060481;28;20032;-74
2023/08/14 05:08:22;;;;;;;10.27;9.38;;;;;;;;;;5061417;28;20025;-75
2023/08/14 05:10:52;;;;;;;10.15;9.15;;;;;;;;;;5060587;28;20028;-74
2023/08/14 05:13:17;;;;;;;10.02;8.85;;;;;;;;;;5058984;28;20064;-73
2023/08/14 05:15:43;;;;;;;10.50;9.60;;;;;;;;;;5046776;28;20044;-73
2023/08/14 05:18:08;;;;;;;10.10;8.95;;;;;;;;;;5043358;28;20645;-74
2023/08/14 05:20:34;;;;;;;10.50;9.60;;;;;;;;;;5042689;28;20040;-73
2023/08/14 05:23:00;;;;;;;10.25;9.25;;;;;;;;;;5043463;28;20025;-73
2023/08/14 05:25:25;;;;;;;10.88;9.95;;;;;;;;;;5039871;28;20025;-77
2023/08/14 05:27:50;;;;;;;11.23;9.27;;;;;;;;;;5048214;28;20028;-74
2023/08/14 05:30:16;;;;;;;10.50;9.45;;;;;;;;;;5049457;28;20034;-74
2023/08/14 05:32:41;;;;;;;9.93;8.98;;;;;;;;;;5059740;28;20421;-77
2023/08/14 05:35:07;;;;;;;11.18;9.80;;;;;;;;;;5060688;28;20039;-73
2023/08/14 05:37:32;;;;;;;15.13;9.02;;;;;;;;;;5059677;28;20020;-73
2023/08/14 05:39:57;;;;;;;11.02;9.93;;;;;;;;;;5060064;28;20361;-74
2023/08/14 05:42:23;;;;;;;10.52;9.63;;;;;;;;;;5060515;28;20372;-77
2023/08/14 05:44:48;;;;;;;9.98;8.98;;;;;;;;;;5060967;28;20040;-75
2023/08/14 05:47:13;;;;;;;11.82;9.65;;;;;;;;;;5058950;28;20037;-74
2023/08/14 05:49:39;;;;;;;9.45;8.35;;;;;;;;;;5058809;28;20040;-78
2023/08/14 05:52:04;;;;;;;10.65;9.68;;;;;;;;;;5061076;28;20017;-75
2023/08/14 05:54:29;;;;;;;9.77;8.85;;;;;;;;;;5050549;28;20028;-75
2023/08/14 05:56:55;;;;;;;10.77;9.68;;;;;;;;;;5052364;28;20447;-75
2023/08/14 05:59:20;;;;;;;9.40;8.60;;;;;;;;;;5043394;28;20427;-75
2023/08/14 06:01:45;;;;;;;10.32;9.25;;;;;;;;;;5041468;28;20394;-76
2023/08/14 06:04:11;;;;;;;9.60;8.70;;;;;;;;;;5051220;28;20028;-75
2023/08/14 06:06:36;;;;;;;9.45;8.65;;;;;;;;;;5051504;28;20021;-76
2023/08/14 06:09:02;;;;;;;10.50;9.55;;;;;;;;;;5051258;28;20430;-75
2023/08/14 06:11:27;;;;;;;11.70;8.88;;;;;;;;;;5050615;28;20373;-77
2023/08/14 06:13:52;;;;;;;13.75;8.65;;;;;;;;;;5056055;28;20033;-76
2023/08/14 06:16:18;;;;;;;9.18;8.18;;;;;;;;;;5053766;28;20043;-77
2023/08/14 06:18:43;;;;;;;11.85;9.10;;;;;;;;;;5060996;28;20499;-75
2023/08/14 06:21:08;;;;;;;9.27;8.38;;;;;;;;;;5059146;28;20114;-74
2023/08/14 06:23:34;;;;;;;10.43;8.40;;;;;;;;;;5056343;28;20068;-74
2023/08/14 06:25:59;;;;;;;8.43;7.45;;;;;;;;;;5057276;28;20726;-74
2023/08/14 06:28:24;;;;;;;9.05;8.30;;;;;;;;;;5059963;28;20420;-75
2023/08/14 06:30:50;;;;;;;9.90;7.50;;;;;;;;;;5058725;28;20033;-74
2023/08/14 06:33:15;;;;;;;8.60;7.90;;;;;;;;;;5058534;28;20050;-74
2023/08/14 06:35:41;;;;;;;10.85;8.48;;;;;;;;;;5058140;28;20115;-75
2023/08/14 06:38:06;;;;;;;9.02;8.07;;;;;;;;;;5075765;28;20036;-76
2023/08/14 06:40:31;;;;;;;8.82;7.93;;;;;;;;;;5057124;28;20049;-74
2023/08/14 06:42:57;;;;;;;8.70;8.00;;;;;;;;;;5058509;28;20028;-77
2023/08/14 06:45:22;;;;;;;9.38;8.48;;;;;;;;;;5058317;28;20598;-74
2023/08/14 06:47:47;;;;;;;9.20;8.15;;;;;;;;;;5058171;28;20454;-74
2023/08/14 06:50:13;;;;;;;8.70;7.95;;;;;;;;;;5057267;28;20553;-75
2023/08/14 06:52:39;;;;;;;8.55;7.72;;;;;;;;;;5057519;28;20024;-75
2023/08/14 06:55:05;;;;;;;9.45;8.10;;;;;;;;;;5055130;28;20081;-74
2023/08/14 06:57:30;;;;;;;9.55;7.38;;;;;;;;;;5057779;28;20590;-76
2023/08/14 06:59:55;;;;;;;11.57;8.68;;;;;;;;;;5057014;28;20085;-74
2023/08/14 07:02:21;;;;;;;8.63;7.93;;;;;;;;;;5055685;28;20056;-73
2023/08/14 07:04:46;;;;;;;9.30;8.40;;;;;;;;;;5055287;28;20024;-74
2023/08/14 07:07:11;;;;;;;9.13;7.57;;;;;;;;;;5048388;28;20421;-71
2023/08/14 07:09:37;;;;;;;9.00;8.10;;;;;;;;;;5057180;28;20325;-74
2023/08/14 07:12:02;;;;;;;10.80;7.90;;;;;;;;;;5059500;28;20032;-73
2023/08/14 07:14:28;;;;;;;9.55;8.65;;;;;;;;;;5058245;28;20024;-73
2023/08/14 07:16:53;;;;;;;8.57;7.65;;;;;;;;;;5056132;28;20047;-72
2023/08/14 07:19:18;;;;;;;8.00;7.30;;;;;;;;;;5056969;28;20484;-72
2023/08/14 07:21:44;;;;;;;8.65;7.82;;;;;;;;;;5059667;28;20452;-71
2023/08/14 07:24:12;;;;;;;8.27;7.47;;;;;;;;;;5058165;28;20095;-76
2023/08/14 07:26:38;;;;;;;9.70;7.47;;;;;;;;;;5056118;28;20020;-71
2023/08/14 07:29:03;;;;;;;8.48;7.68;;;;;;;;;;5059616;28;20024;-71
2023/08/14 07:31:29;;;;;;;8.60;7.80;;;;;;;;;;5059119;28;20020;-74
2023/08/14 07:33:54;;;;;;;9.82;7.25;;;;;;;;;;5056838;28;20048;-73
2023/08/14 07:36:20;;;;;;;9.30;7.60;;;;;;;;;;5056989;28;20138;-70
2023/08/14 07:38:45;;;;;;;7.80;7.15;;;;;;;;;;5056508;28;20916;-73
2023/08/14 07:41:11;;;;;;;7.80;7.10;;;;;;;;;;5055316;28;20497;-72
2023/08/14 07:43:36;;;;;;;8.27;7.57;;;;;;;;;;5056390;28;20024;-71
2023/08/14 07:46:01;;;;;;;12.23;7.32;;;;;;;;;;5056762;28;20024;-74
2023/08/14 07:48:27;;;;;;;10.88;7.00;;;;;;;;;;5052311;28;20016;-71
2023/08/14 07:50:53;;;;;;;8.38;7.57;;;;;;;;;;5044849;28;20054;-71
2023/08/14 07:53:19;;;;;;;8.18;6.90;;;;;;;;;;5040786;28;20044;-74
2023/08/14 07:55:44;;;;;;;11.45;8.48;;;;;;;;;;5041001;28;20433;-74
2023/08/14 07:58:10;;;;;;;8.50;7.25;;;;;;;;;;5042737;28;20300;-71
2023/08/14 08:00:35;;;;;;;7.60;6.90;;;;;;;;;;5055438;28;21132;-74
2023/08/14 08:03:01;;;;;;;8.15;6.68;;;;;;;;;;5044687;28;20085;-75
2023/08/14 08:05:26;;;;;;;7.75;6.65;;;;;;;;;;5067478;28;20032;-75
2023/08/14 08:07:51;;;;;;;6.70;6.03;;;;;;;;;;5059617;28;20399;-73
2023/08/14 08:10:17;;;;;;;6.22;5.63;;;;;;;;;;5056191;28;20027;-76
2023/08/14 08:12:42;;;;;;;7.05;6.00;;;;;;;;;;5056969;28;20020;-73
2023/08/14 08:15:08;;;;;;;6.88;5.60;;;;;;;;;;5053917;28;20017;-73
2023/08/14 08:17:33;;;;;;;6.75;4.82;;;;;;;;;;5057472;28;20028;-76
2023/08/14 08:19:58;;;;;;;5.07;4.57;;;;;;;;;;5040281;28;20035;-75
2023/08/14 08:22:24;;;;;;;5.22;4.72;;;;;;;;;;5055901;28;20052;-73
2023/08/14 08:24:49;;;;;;;9.02;5.63;;;;;;;;;;5056118;28;20056;-74
2023/08/14 08:27:14;;;;;;;8.27;5.60;;;;;;;;;;5057148;28;20024;-74
2023/08/14 08:29:40;;;;;;;6.22;4.90;;;;;;;;;;5053332;28;20447;-75
2023/08/14 08:32:05;;;;;;;5.05;4.60;;;;;;;;;;5056574;28;20432;-72
2023/08/14 08:34:30;;;;;;;6.18;4.90;;;;;;;;;;5060233;28;20053;-73
2023/08/14 08:36:56;;;;;;;5.85;5.18;;;;;;;;;;5064135;28;20035;-72
2023/08/14 08:39:21;;;;;;;5.15;4.68;;;;;;;;;;5060659;28;20367;-74
2023/08/14 08:41:48;;;;;;;5.03;4.35;;;;;;;;;;5060973;28;20091;-73
2023/08/14 08:44:25;;;;;;;8.35;4.63;;;;;;;;;;5056990;28;20116;-73
2023/08/14 08:46:57;;;;;;;5.78;4.50;;;;;;;;;;5061414;28;20406;-73
2023/08/14 08:49:22;;;;;;;5.40;4.90;;;;;;;;;;5059621;28;20040;-74
2023/08/14 08:51:48;;;;;;;5.15;4.75;;;;;;;;;;5057897;28;20542;-74
2023/08/14 08:54:16;;;;;;;6.43;4.53;;;;;;;;;;5058774;28;20044;-74
2023/08/14 08:56:42;;;;;;;8.27;5.05;;;;;;;;;;5061329;28;20032;-72
2023/08/14 08:59:11;;;;;;;5.78;4.40;;;;;;;;;;5043995;28;20374;-73
2023/08/14 09:01:37;;;;;;;5.38;4.53;;;;;;;;;;5041579;28;20062;-73
2023/08/14 09:04:02;;;;;;;5.18;4.50;;;;;;;;;;5046168;28;20058;-73
2023/08/14 09:06:28;;;;;;;5.47;4.22;;;;;;;;;;5043440;28;20149;-71
2023/08/14 09:08:53;;;;;;;6.35;4.28;;;;;;;;;;5043031;28;20031;-73
2023/08/14 09:11:19;;;;;;;6.35;4.18;;;;;;;;;;5041394;28;20028;-73
2023/08/14 09:13:44;;;;;;;5.95;3.78;;;;;;;;;;5042745;28;20024;-71
2023/08/14 09:16:13;;;;;;;4.40;4.03;;;;;;;;;;5043630;28;20024;-71
2023/08/14 09:18:38;;;;;;;;;;;;;;;;;;5044061;28;20029;-71
2023/08/14 09:21:04;;;;;;;6.43;3.90;;;;;;;;;;5041046;28;20259;-72
2023/08/14 09:23:30;;;;;;;5.03;4.03;;;;;;;;;;5042009;28;20024;-72
2023/08/14 09:25:56;;;;;;;5.63;3.90;;;;;;;;;;5042178;28;20456;-76
2023/08/14 09:28:21;;;;;;;4.30;3.58;;;;;;;;;;5042530;28;20056;-72
2023/08/14 09:30:47;;;;;;;5.38;3.60;;;;;;;;;;5046320;28;20734;-73
2023/08/14 09:33:12;;;;;;;4.93;3.58;;;;;;;;;;5060497;28;20043;-71
2023/08/14 09:35:38;;;;;;;4.72;3.83;;;;;;;;;;5059697;28;20028;-71
2023/08/14 09:38:04;;;;;;;4.63;3.60;;;;;;;;;;5057405;28;20032;-73
2023/08/14 09:40:30;;;;;;;4.53;3.70;;;;;;;;;;5054314;28;20113;-74
2023/08/14 09:42:56;;;;;;;3.97;3.30;;;;;;;;;;5060379;28;20028;-72
2023/08/14 09:45:27;;;;;;;3.65;3.35;;;;;;;;;;5059941;28;20803;-73
2023/08/14 09:47:56;;;;;;;3.90;3.40;;;;;;;;;;5058749;28;20024;-73
2023/08/14 09:50:26;;;;;;;4.53;3.50;;;;;;;;;;5060137;28;20435;-76
2023/08/14 09:52:55;;;;;;;5.30;3.50;;;;;;;;;;5059365;28;20424;-74
2023/08/14 09:55:20;;;;;;;3.95;3.38;;;;;;;;;;5059669;28;20071;-71
2023/08/14 09:57:47;;;;;;;5.35;3.60;;;;;;;;;;5060397;28;20113;-71
2023/08/14 10:00:12;;;;;;;4.32;3.45;;;;;;;;;;5058499;28;20024;-72
2023/08/14 10:02:38;;;;;;;4.45;3.28;;;;;;;;;;5056428;28;20039;-77
2023/08/14 10:05:09;;;;;;;4.10;3.40;;;;;;;;;;5059124;28;20016;-76
2023/08/14 10:07:34;;;;;;;4.40;3.47;;;;;;;;;;5059378;28;20107;-73
2023/08/14 10:10:02;;;;;;;6.72;3.28;;;;;;;;;;5056542;28;20173;-72
2023/08/14 10:12:28;;;;;;;5.25;3.50;;;;;;;;;;5062412;28;20025;-74
2023/08/14 10:15:04;;;;;;;4.75;3.08;;;;;;;;;;5057283;28;20037;-74
2023/08/14 10:17:31;;;;;;;4.03;3.47;;;;;;;;;;5059825;28;20323;-72
2023/08/14 10:19:56;;;;;;;4.57;3.20;;;;;;;;;;5058716;28;20086;-73
2023/08/14 10:22:22;;;;;;;3.92;3.42;;;;;;;;;;5059472;28;20452;-75
2023/08/14 10:24:49;;;;;;;4.28;3.20;;;;;;;;;;5060186;28;20078;-72
2023/08/14 10:27:14;;;;;;;4.55;3.42;;;;;;;;;;5057576;28;20064;-71
2023/08/14 10:29:40;;;;;;;3.40;3.10;;;;;;;;;;5056834;28;20382;-71
2023/08/14 10:32:06;;;;;;;4.50;3.03;;;;;;;;;;5058872;28;20393;-72
2023/08/14 10:34:32;;;;;;;4.53;3.38;;;;;;;;;;5059345;28;20039;-75
2023/08/14 10:36:57;;;;;;;4.15;3.65;;;;;;;;;;5057934;28;20451;-72
2023/08/14 10:39:42;;;;;;;5.22;3.30;;;;;;;;;;5059451;28;20114;-73
2023/08/14 10:42:11;;;;;;;6.75;3.15;;;;;;;;;;5073801;28;20041;-75
2023/08/14 10:44:37;;;;;;;5.15;3.40;;;;;;;;;;5057378;28;20025;-71
2023/08/14 10:47:06;;;;;;;5.45;3.13;;;;;;;;;;5057518;28;20025;-72
2023/08/14 10:49:36;;;;;;;3.20;2.90;;;;;;;;;;5059680;28;20034;-72
2023/08/14 10:52:01;;;;;;;3.17;2.88;;;;;;;;;;5059398;28;20497;-72
2023/08/14 10:54:36;;;;;;;4.18;2.80;;;;;;;;;;5057716;28;20037;-73
2023/08/14 10:57:06;;;;;;;8.85;2.97;;;;;;;;;;5056429;28;20481;-74
2023/08/14 10:59:34;;;;;;;3.35;2.97;;;;;;;;;;5059132;28;20036;-73
2023/08/14 11:02:11;;;;;;;6.75;3.13;;;;;;;;;;5058546;28;20111;-74
2023/08/14 11:04:55;;;;;;;5.40;2.85;;;;;;;;;;5055923;28;20033;-72
2023/08/14 11:07:24;;;;;;;4.20;3.00;;;;;;;;;;5056601;28;20123;-73
2023/08/14 11:09:49;;;;;;;3.28;2.97;;;;;;;;;;5056986;28;20028;-73
2023/08/14 11:12:15;;;;;;;4.35;3.05;;;;;;;;;;5059351;28;20102;-73
2023/08/14 11:14:41;;;;;;;3.20;2.90;;;;;;;;;;5060264;28;20020;-71
2023/08/14 11:17:07;;;;;;;5.20;3.40;;;;;;;;;;5058187;28;20406;-72
2023/08/14 11:19:33;;;;;;;5.85;2.85;;;;;;;;;;5058335;28;20040;-75
2023/08/14 11:21:59;;;;;;;4.10;2.90;;;;;;;;;;5058039;28;20341;-76
2023/08/14 11:24:24;;;;;;;3.50;3.20;;;;;;;;;;5057378;28;20032;-72
2023/08/14 11:26:49;;;;;;;3.50;3.20;;;;;;;;;;5057357;28;20029;-73
2023/08/14 11:29:15;;;;;;;4.25;3.10;;;;;;;;;;5058836;28;20020;-71
2023/08/14 11:31:42;;;;;;;4.18;3.40;;;;;;;;;;5057995;28;20029;-70
2023/08/14 11:34:07;;;;;;;5.43;3.15;;;;;;;;;;5059101;28;20082;-76
2023/08/14 11:36:33;;;;;;;5.00;3.50;;;;;;;;;;5058730;28;20032;-76
2023/08/14 11:38:58;;;;;;;4.68;3.65;;;;;;;;;;5055978;28;20467;-74
2023/08/14 11:41:23;;;;;;;4.18;3.72;;;;;;;;;;5058909;28;20048;-71
2023/08/14 11:43:49;;;;;;;6.97;3.85;;;;;;;;;;5057248;28;21124;-74
2023/08/14 11:46:15;;;;;;;6.70;3.60;;;;;;;;;;5054334;28;20052;-72
2023/08/14 11:48:41;;;;;;;3.60;3.30;;;;;;;;;;5057690;28;20098;-71
2023/08/14 11:51:07;;;;;;;3.85;3.55;;;;;;;;;;5057518;28;20459;-72
2023/08/14 11:53:33;;;;;;;4.97;3.40;;;;;;;;;;5056339;28;20115;-73
2023/08/14 11:55:58;;;;;;;4.88;3.67;;;;;;;;;;5058232;28;20052;-72
2023/08/14 11:58:24;;;;;;;3.55;3.33;;;;;;;;;;5059252;28;20044;-73
2023/08/14 12:00:52;;;;;;;6.47;3.53;;;;;;;;;;5056629;28;20492;-71
2023/08/14 12:03:18;;;;;;;3.75;3.17;;;;;;;;;;5055673;28;20495;-74
2023/08/14 12:05:59;;;;;;;7.03;3.20;;;;;;;;;;5042501;28;20032;-75
2023/08/14 12:08:24;;;;;;;4.43;3.72;;;;;;;;;;5055399;28;20017;-72
2023/08/14 12:10:49;;;;;;;4.22;3.70;;;;;;;;;;5046727;28;20321;-71
2023/08/14 12:13:19;;;;;;;3.72;3.42;;;;;;;;;;5050672;28;20039;-77
2023/08/14 12:15:46;;;;;;;5.60;3.78;;;;;;;;;;5042718;28;20035;-72
2023/08/14 12:18:12;;;;;;;4.32;3.70;;;;;;;;;;5058733;28;20033;-76
2023/08/14 12:20:38;;;;;;;5.20;3.42;;;;;;;;;;5056390;28;20033;-75
2023/08/14 12:23:13;;;;;;;3.47;3.17;;;;;;;;;;5056362;28;20024;-72
2023/08/14 12:25:39;;;;;;;4.47;3.53;;;;;;;;;;5051557;28;20421;-71
2023/08/14 12:28:04;;;;;;;4.55;3.53;;;;;;;;;;5043715;28;20035;-72
2023/08/14 12:30:30;;;;;;;4.60;3.92;;;;;;;;;;5056400;28;20031;-71
2023/08/14 12:32:57;;;;;;;3.88;3.55;;;;;;;;;;5055801;28;20021;-74
2023/08/14 12:35:22;;;;;;;6.80;3.05;;;;;;;;;;5046400;28;20108;-78
2023/08/14 12:37:47;;;;;;;3.85;3.35;;;;;;;;;;5054803;28;20111;-76
2023/08/14 12:40:13;;;;;;;4.55;3.08;;;;;;;;;;5056082;28;20055;-75
2023/08/14 12:42:39;;;;;;;5.03;3.60;;;;;;;;;;5052898;28;20049;-74
2023/08/14 12:45:05;;;;;;;3.25;2.97;;;;;;;;;;5040089;28;20500;-75
2023/08/14 12:47:31;;;;;;;4.22;3.60;;;;;;;;;;5055953;28;20726;-75
2023/08/14 12:49:56;;;;;;;4.40;3.70;;;;;;;;;;5054797;28;20060;-76
2023/08/14 12:52:22;;;;;;;4.35;3.50;;;;;;;;;;5054326;28;20104;-76
2023/08/14 12:54:47;;;;;;;9.05;3.25;;;;;;;;;;5038125;28;20025;-75
2023/08/14 12:57:15;;;;;;;7.93;3.40;;;;;;;;;;5036372;28;20036;-75
2023/08/14 12:59:41;;;;;;;3.88;3.20;;;;;;;;;;5038510;28;20024;-76
2023/08/14 13:02:06;;;;;;;4.65;3.28;;;;;;;;;;5050510;28;20044;-75
2023/08/14 13:04:31;;;;;;;4.45;3.05;;;;;;;;;;5039325;28;20432;-73
2023/08/14 13:06:58;;;;;;;3.97;3.20;;;;;;;;;;5054582;28;20028;-77
2023/08/14 13:09:24;;;;;;;4.45;3.15;;;;;;;;;;5055283;28;20028;-74
2023/08/14 13:11:49;;;;;;;4.47;3.20;;;;;;;;;;5056361;28;20048;-74
2023/08/14 13:14:15;;;;;;;3.70;3.40;;;;;;;;;;5055046;28;20036;-75
2023/08/14 13:16:40;;;;;;;6.47;3.65;;;;;;;;;;5052130;28;20069;-76
2023/08/14 13:19:06;;;;;;;5.68;3.30;;;;;;;;;;5053095;28;20370;-76
2023/08/14 13:21:31;;;;;;;6.63;3.70;;;;;;;;;;5044816;28;20435;-78
2023/08/14 13:23:57;;;;;;;5.57;3.42;;;;;;;;;;5059166;28;20054;-71
2023/08/14 13:26:23;;;;;;;3.78;3.15;;;;;;;;;;5044335;28;20028;-74
2023/08/14 13:28:48;;;;;;;5.85;3.53;;;;;;;;;;5055770;28;20028;-71
2023/08/14 13:31:13;;;;;;;5.85;3.60;;;;;;;;;;5042995;28;20025;-73
2023/08/14 13:33:40;;;;;;;4.57;3.38;;;;;;;;;;5045867;28;20032;-74
2023/08/14 13:36:05;;;;;;;3.53;3.20;;;;;;;;;;5043023;28;20044;-74
2023/08/14 13:38:31;;;;;;;4.38;3.05;;;;;;;;;;5051216;28;20039;-74
2023/08/14 13:40:56;;;;;;;3.53;3.22;;;;;;;;;;5041548;28;20048;-75
2023/08/14 13:43:22;;;;;;;3.50;3.20;;;;;;;;;;5040262;28;20036;-77
2023/08/14 13:45:47;;;;;;;8.13;3.65;;;;;;;;;;5040012;28;20086;-74
2023/08/14 13:48:13;;;;;;;4.25;3.10;;;;;;;;;;5040434;28;20115;-75
2023/08/14 13:50:38;;;;;;;4.22;3.47;;;;;;;;;;5040474;28;20509;-74
2023/08/14 13:53:03;;;;;;;3.88;3.33;;;;;;;;;;5040385;28;20569;-74
2023/08/14 13:55:30;;;;;;;4.85;3.20;;;;;;;;;;5043072;28;20075;-75
2023/08/14 13:57:55;;;;;;;5.20;3.17;;;;;;;;;;5042495;28;20082;-75
2023/08/14 14:00:21;;;;;;;3.90;3.53;;;;;;;;;;5040426;28;20444;-76
2023/08/14 14:02:46;;;;;;;6.53;3.33;;;;;;;;;;5042646;28;20025;-75
2023/08/14 14:05:11;;;;;;;6.13;3.78;;;;;;;;;;5045150;28;20033;-76
2023/08/14 14:07:37;;;;;;;3.78;3.35;;;;;;;;;;5043416;28;20121;-73
2023/08/14 14:10:03;;;;;;;4.68;3.10;;;;;;;;;;5046464;28;20032;-72
2023/08/14 14:12:28;;;;;;;4.03;3.22;;;;;;;;;;5044550;28;20032;-74
2023/08/14 14:14:54;;;;;;;3.40;3.10;;;;;;;;;;5043232;28;20028;-73
2023/08/14 14:17:19;;;;;;;4.43;2.97;;;;;;;;;;5044101;28;20056;-73
2023/08/14 14:19:44;;;;;;;5.30;3.42;;;;;;;;;;5042862;28;20551;-73
2023/08/14 14:22:10;;;;;;;3.40;3.10;;;;;;;;;;5046725;28;20051;-79
2023/08/14 14:24:35;;;;;;;5.55;3.40;;;;;;;;;;5058593;28;20036;-75
2023/08/14 14:27:01;;;;;;;4.10;2.83;;;;;;;;;;5044739;28;20031;-74
2023/08/14 14:29:27;;;;;;;4.38;3.25;;;;;;;;;;5039478;28;20081;-73
2023/08/14 14:31:52;;;;;;;3.92;3.20;;;;;;;;;;5039393;28;20381;-72